sensor_id;sensor_type;location;lat;lon;timestamp;temperature;humidity
47805;DHT22;33568;45.286;9.900;2024-02-21T00:01:17;10.60;99.90
47805;DHT22;33568;45.286;9.900;2024-02-21T00:03:44;10.60;99.90
47805;DHT22;33568;45.286;9.900;2024-02-21T00:06:10;10.60;99.90
47805;DHT22;33568;45.286;9.900;2024-02-21T00:08:36;10.60;99.90
47805;DHT22;33568;45.286;9.900;2024-02-21T00:11:03;10.60;99.90
47805;DHT22;33568;45.286;9.900;2024-02-21T00:13:29;10.60;99.90
47805;DHT22;33568;45.286;9.900;2024-02-21T00:15:56;10.50;99.90
47805;DHT22;33568;45.286;9.900;2024-02-21T00:18:22;10.50;99.90
47805;DHT22;33568;45.286;9.900;2024-02-21T00:20:48;10.40;99.90
47805;DHT22;33568;45.286;9.900;2024-02-21T00:23:15;10.40;99.90
47805;DHT22;33568;45.286;9.900;2024-02-21T00:25:41;10.40;99.90
47805;DHT22;33568;45.286;9.900;2024-02-21T00:28:07;10.40;99.90
47805;DHT22;33568;45.286;9.900;2024-02-21T00:30:34;10.30;99.90
47805;DHT22;33568;45.286;9.900;2024-02-21T00:33:00;10.30;99.90
47805;DHT22;33568;45.286;9.900;2024-02-21T00:35:26;10.20;99.90
47805;DHT22;33568;45.286;9.900;2024-02-21T00:37:53;10.20;99.90
47805;DHT22;33568;45.286;9.900;2024-02-21T00:40:20;10.10;99.90
47805;DHT22;33568;45.286;9.900;2024-02-21T00:42:48;10.00;99.90
47805;DHT22;33568;45.286;9.900;2024-02-21T00:45:14;10.00;99.90
47805;DHT22;33568;45.286;9.900;2024-02-21T00:47:40;9.90;99.90
47805;DHT22;33568;45.286;9.900;2024-02-21T00:50:07;9.90;99.90
47805;DHT22;33568;45.286;9.900;2024-02-21T00:52:35;9.90;99.90
47805;DHT22;33568;45.286;9.900;2024-02-21T00:55:02;9.90;99.90
47805;DHT22;33568;45.286;9.900;2024-02-21T00:57:28;9.80;99.90
47805;DHT22;33568;45.286;9.900;2024-02-21T00:59:54;9.80;99.90
47805;DHT22;33568;45.286;9.900;2024-02-21T01:02:21;9.80;99.90
47805;DHT22;33568;45.286;9.900;2024-02-21T01:04:47;9.80;99.90
47805;DHT22;33568;45.286;9.900;2024-02-21T01:07:13;9.80;99.90
47805;DHT22;33568;45.286;9.900;2024-02-21T01:09:40;9.80;99.90
47805;DHT22;33568;45.286;9.900;2024-02-21T01:12:06;9.80;99.90
47805;DHT22;33568;45.286;9.900;2024-02-21T01:14:32;9.80;99.90
47805;DHT22;33568;45.286;9.900;2024-02-21T01:16:59;9.90;99.90
47805;DHT22;33568;45.286;9.900;2024-02-21T01:19:25;9.80;99.90
47805;DHT22;33568;45.286;9.900;2024-02-21T01:21:52;9.80;99.90
47805;DHT22;33568;45.286;9.900;2024-02-21T01:24:18;9.80;99.90
47805;DHT22;33568;45.286;9.900;2024-02-21T01:26:44;9.80;99.90
47805;DHT22;33568;45.286;9.900;2024-02-21T01:29:11;9.90;99.90
47805;DHT22;33568;45.286;9.900;2024-02-21T01:31:37;9.80;99.90
47805;DHT22;33568;45.286;9.900;2024-02-21T01:34:04;9.90;99.90
47805;DHT22;33568;45.286;9.900;2024-02-21T01:36:30;9.80;99.90
47805;DHT22;33568;45.286;9.900;2024-02-21T01:38:56;9.90;99.90
47805;DHT22;33568;45.286;9.900;2024-02-21T01:41:22;9.90;99.90
47805;DHT22;33568;45.286;9.900;2024-02-21T01:43:49;9.90;99.90
47805;DHT22;33568;45.286;9.900;2024-02-21T01:46:15;9.80;99.90
47805;DHT22;33568;45.286;9.900;2024-02-21T01:48:42;9.80;99.90
47805;DHT22;33568;45.286;9.900;2024-02-21T01:51:09;9.80;99.90
47805;DHT22;33568;45.286;9.900;2024-02-21T01:53:37;9.80;99.90
47805;DHT22;33568;45.286;9.900;2024-02-21T01:56:05;9.80;99.90
47805;DHT22;33568;45.286;9.900;2024-02-21T01:58:34;9.80;99.90
47805;DHT22;33568;45.286;9.900;2024-02-21T02:01:03;9.80;99.90
47805;DHT22;33568;45.286;9.900;2024-02-21T02:03:29;9.80;99.90
47805;DHT22;33568;45.286;9.900;2024-02-21T02:05:56;9.70;99.90
47805;DHT22;33568;45.286;9.900;2024-02-21T02:08:22;9.70;99.90
47805;DHT22;33568;45.286;9.900;2024-02-21T02:10:49;9.70;99.90
47805;DHT22;33568;45.286;9.900;2024-02-21T02:13:15;9.60;99.90
47805;DHT22;33568;45.286;9.900;2024-02-21T02:15:43;9.50;99.90
47805;DHT22;33568;45.286;9.900;2024-02-21T02:18:11;9.40;99.90
47805;DHT22;33568;45.286;9.900;2024-02-21T02:20:38;9.30;99.90
47805;DHT22;33568;45.286;9.900;2024-02-21T02:23:11;9.20;99.90
47805;DHT22;33568;45.286;9.900;2024-02-21T02:25:39;9.20;99.90
47805;DHT22;33568;45.286;9.900;2024-02-21T02:28:08;9.20;99.90
47805;DHT22;33568;45.286;9.900;2024-02-21T02:30:35;9.10;99.90
47805;DHT22;33568;45.286;9.900;2024-02-21T02:33:03;9.10;99.90
47805;DHT22;33568;45.286;9.900;2024-02-21T02:35:30;9.10;99.90
47805;DHT22;33568;45.286;9.900;2024-02-21T02:37:56;9.00;99.90
47805;DHT22;33568;45.286;9.900;2024-02-21T02:40:23;9.00;99.90
47805;DHT22;33568;45.286;9.900;2024-02-21T02:42:50;8.90;99.90
47805;DHT22;33568;45.286;9.900;2024-02-21T02:45:17;8.80;99.90
47805;DHT22;33568;45.286;9.900;2024-02-21T02:47:45;8.70;99.90
47805;DHT22;33568;45.286;9.900;2024-02-21T02:50:14;8.50;99.90
47805;DHT22;33568;45.286;9.900;2024-02-21T02:52:40;8.40;99.90
47805;DHT22;33568;45.286;9.900;2024-02-21T02:55:07;8.40;99.90
47805;DHT22;33568;45.286;9.900;2024-02-21T02:57:33;8.40;99.90
47805;DHT22;33568;45.286;9.900;2024-02-21T03:00:00;8.40;99.90
47805;DHT22;33568;45.286;9.900;2024-02-21T03:02:26;8.40;99.90
47805;DHT22;33568;45.286;9.900;2024-02-21T03:04:53;8.40;99.90
47805;DHT22;33568;45.286;9.900;2024-02-21T03:07:20;8.40;99.90
47805;DHT22;33568;45.286;9.900;2024-02-21T03:09:46;8.40;99.90
47805;DHT22;33568;45.286;9.900;2024-02-21T03:12:12;8.40;99.90
47805;DHT22;33568;45.286;9.900;2024-02-21T03:14:39;8.40;99.90
47805;DHT22;33568;45.286;9.900;2024-02-21T03:17:05;8.50;99.90
47805;DHT22;33568;45.286;9.900;2024-02-21T03:19:31;8.50;99.90
47805;DHT22;33568;45.286;9.900;2024-02-21T03:21:58;8.50;99.90
47805;DHT22;33568;45.286;9.900;2024-02-21T03:24:24;8.50;99.90
47805;DHT22;33568;45.286;9.900;2024-02-21T03:26:50;8.50;99.90
47805;DHT22;33568;45.286;9.900;2024-02-21T03:29:17;8.50;99.90
47805;DHT22;33568;45.286;9.900;2024-02-21T03:31:43;8.60;99.90
47805;DHT22;33568;45.286;9.900;2024-02-21T03:34:12;8.60;99.90
47805;DHT22;33568;45.286;9.900;2024-02-21T03:36:39;8.50;99.90
47805;DHT22;33568;45.286;9.900;2024-02-21T03:39:05;8.60;99.90
47805;DHT22;33568;45.286;9.900;2024-02-21T03:41:32;8.60;99.90
47805;DHT22;33568;45.286;9.900;2024-02-21T03:43:58;8.70;99.90
47805;DHT22;33568;45.286;9.900;2024-02-21T03:46:25;8.70;99.90
47805;DHT22;33568;45.286;9.900;2024-02-21T03:48:51;8.70;99.90
47805;DHT22;33568;45.286;9.900;2024-02-21T03:51:17;8.60;99.90
47805;DHT22;33568;45.286;9.900;2024-02-21T03:53:44;8.70;99.90
47805;DHT22;33568;45.286;9.900;2024-02-21T03:56:10;8.70;99.90
47805;DHT22;33568;45.286;9.900;2024-02-21T03:58:36;8.70;99.90
47805;DHT22;33568;45.286;9.900;2024-02-21T04:01:03;8.70;99.90
47805;DHT22;33568;45.286;9.900;2024-02-21T04:03:30;8.70;99.90
47805;DHT22;33568;45.286;9.900;2024-02-21T04:05:57;8.70;99.90
47805;DHT22;33568;45.286;9.900;2024-02-21T04:08:23;8.70;99.90
47805;DHT22;33568;45.286;9.900;2024-02-21T04:10:49;8.70;99.90
47805;DHT22;33568;45.286;9.900;2024-02-21T04:13:16;8.60;99.90
47805;DHT22;33568;45.286;9.900;2024-02-21T04:15:42;8.60;99.90
47805;DHT22;33568;45.286;9.900;2024-02-21T04:18:09;8.60;99.90
47805;DHT22;33568;45.286;9.900;2024-02-21T04:20:35;8.60;99.90
47805;DHT22;33568;45.286;9.900;2024-02-21T04:23:01;8.60;99.90
47805;DHT22;33568;45.286;9.900;2024-02-21T04:25:28;8.60;99.90
47805;DHT22;33568;45.286;9.900;2024-02-21T04:27:54;8.60;99.90
47805;DHT22;33568;45.286;9.900;2024-02-21T04:30:20;8.50;99.90
47805;DHT22;33568;45.286;9.900;2024-02-21T04:32:47;8.60;99.90
47805;DHT22;33568;45.286;9.900;2024-02-21T04:35:13;8.60;99.90
47805;DHT22;33568;45.286;9.900;2024-02-21T04:37:39;8.60;99.90
47805;DHT22;33568;45.286;9.900;2024-02-21T04:40:06;8.60;99.90
47805;DHT22;33568;45.286;9.900;2024-02-21T04:42:33;8.60;99.90
47805;DHT22;33568;45.286;9.900;2024-02-21T04:44:59;8.60;99.90
47805;DHT22;33568;45.286;9.900;2024-02-21T04:47:27;8.60;99.90
47805;DHT22;33568;45.286;9.900;2024-02-21T04:49:53;8.50;99.90
47805;DHT22;33568;45.286;9.900;2024-02-21T04:52:19;8.50;99.90
47805;DHT22;33568;45.286;9.900;2024-02-21T04:54:46;8.50;99.90
47805;DHT22;33568;45.286;9.900;2024-02-21T04:57:12;8.50;99.90
47805;DHT22;33568;45.286;9.900;2024-02-21T04:59:46;8.50;99.90
47805;DHT22;33568;45.286;9.900;2024-02-21T05:02:14;8.40;99.90
47805;DHT22;33568;45.286;9.900;2024-02-21T05:04:40;8.40;99.90
47805;DHT22;33568;45.286;9.900;2024-02-21T05:07:08;8.30;99.90
47805;DHT22;33568;45.286;9.900;2024-02-21T05:09:34;8.20;99.90
47805;DHT22;33568;45.286;9.900;2024-02-21T05:12:00;8.10;99.90
47805;DHT22;33568;45.286;9.900;2024-02-21T05:14:27;8.00;99.90
47805;DHT22;33568;45.286;9.900;2024-02-21T05:16:53;8.10;99.90
47805;DHT22;33568;45.286;9.900;2024-02-21T05:19:20;8.00;99.90
47805;DHT22;33568;45.286;9.900;2024-02-21T05:21:46;8.00;99.90
47805;DHT22;33568;45.286;9.900;2024-02-21T05:24:12;8.00;99.90
47805;DHT22;33568;45.286;9.900;2024-02-21T05:26:39;8.00;99.90
47805;DHT22;33568;45.286;9.900;2024-02-21T05:29:05;8.00;99.90
47805;DHT22;33568;45.286;9.900;2024-02-21T05:34:19;8.00;99.90
47805;DHT22;33568;45.286;9.900;2024-02-21T05:36:46;8.00;99.90
47805;DHT22;33568;45.286;9.900;2024-02-21T05:39:13;8.00;99.90
47805;DHT22;33568;45.286;9.900;2024-02-21T05:41:40;8.10;99.90
47805;DHT22;33568;45.286;9.900;2024-02-21T05:44:07;8.10;99.90
47805;DHT22;33568;45.286;9.900;2024-02-21T05:46:33;8.00;99.90
47805;DHT22;33568;45.286;9.900;2024-02-21T05:48:59;8.00;99.90
47805;DHT22;33568;45.286;9.900;2024-02-21T05:51:26;8.00;99.90
47805;DHT22;33568;45.286;9.900;2024-02-21T05:53:52;8.00;99.90
47805;DHT22;33568;45.286;9.900;2024-02-21T05:56:19;8.00;99.90
47805;DHT22;33568;45.286;9.900;2024-02-21T05:58:45;8.00;99.90
47805;DHT22;33568;45.286;9.900;2024-02-21T06:01:11;7.90;99.90
47805;DHT22;33568;45.286;9.900;2024-02-21T06:03:38;7.90;99.90
47805;DHT22;33568;45.286;9.900;2024-02-21T06:06:04;8.00;99.90
47805;DHT22;33568;45.286;9.900;2024-02-21T06:08:31;7.90;99.90
47805;DHT22;33568;45.286;9.900;2024-02-21T06:10:57;7.90;99.90
47805;DHT22;33568;45.286;9.900;2024-02-21T06:13:25;7.90;99.90
47805;DHT22;33568;45.286;9.900;2024-02-21T06:15:53;7.90;99.90
47805;DHT22;33568;45.286;9.900;2024-02-21T06:18:20;7.90;99.90
47805;DHT22;33568;45.286;9.900;2024-02-21T06:20:47;7.90;99.90
47805;DHT22;33568;45.286;9.900;2024-02-21T06:23:15;7.90;99.90
47805;DHT22;33568;45.286;9.900;2024-02-21T06:25:43;7.90;99.90
47805;DHT22;33568;45.286;9.900;2024-02-21T06:28:09;7.90;99.90
47805;DHT22;33568;45.286;9.900;2024-02-21T06:30:36;7.90;99.90
47805;DHT22;33568;45.286;9.900;2024-02-21T06:33:02;7.90;99.90
47805;DHT22;33568;45.286;9.900;2024-02-21T06:35:29;7.90;99.90
47805;DHT22;33568;45.286;9.900;2024-02-21T06:37:56;7.90;99.90
47805;DHT22;33568;45.286;9.900;2024-02-21T06:40:23;7.90;99.90
47805;DHT22;33568;45.286;9.900;2024-02-21T06:42:50;8.00;99.90
47805;DHT22;33568;45.286;9.900;2024-02-21T06:45:17;7.90;99.90
47805;DHT22;33568;45.286;9.900;2024-02-21T06:47:44;7.90;99.90
47805;DHT22;33568;45.286;9.900;2024-02-21T06:50:10;8.00;99.90
47805;DHT22;33568;45.286;9.900;2024-02-21T06:52:36;8.00;99.90
47805;DHT22;33568;45.286;9.900;2024-02-21T06:55:03;8.00;99.90
47805;DHT22;33568;45.286;9.900;2024-02-21T06:57:30;8.10;99.90
47805;DHT22;33568;45.286;9.900;2024-02-21T06:59:57;8.10;99.90
47805;DHT22;33568;45.286;9.900;2024-02-21T07:02:23;8.10;99.90
47805;DHT22;33568;45.286;9.900;2024-02-21T07:04:49;8.20;99.90
47805;DHT22;33568;45.286;9.900;2024-02-21T07:07:16;8.10;99.90
47805;DHT22;33568;45.286;9.900;2024-02-21T07:09:42;8.20;99.90
47805;DHT22;33568;45.286;9.900;2024-02-21T07:12:09;8.20;99.90
47805;DHT22;33568;45.286;9.900;2024-02-21T07:14:36;8.10;99.90
47805;DHT22;33568;45.286;9.900;2024-02-21T07:17:02;8.20;99.90
47805;DHT22;33568;45.286;9.900;2024-02-21T07:19:29;8.20;99.90
47805;DHT22;33568;45.286;9.900;2024-02-21T07:21:56;8.40;99.90
47805;DHT22;33568;45.286;9.900;2024-02-21T07:24:23;8.40;99.90
47805;DHT22;33568;45.286;9.900;2024-02-21T07:26:49;8.50;99.90
47805;DHT22;33568;45.286;9.900;2024-02-21T07:29:16;8.50;99.90
47805;DHT22;33568;45.286;9.900;2024-02-21T07:31:43;8.60;99.90
47805;DHT22;33568;45.286;9.900;2024-02-21T07:34:09;8.80;99.90
47805;DHT22;33568;45.286;9.900;2024-02-21T07:36:36;8.90;99.90
47805;DHT22;33568;45.286;9.900;2024-02-21T07:39:04;8.90;99.90
47805;DHT22;33568;45.286;9.900;2024-02-21T07:41:34;9.10;99.90
47805;DHT22;33568;45.286;9.900;2024-02-21T07:44:04;9.20;99.90
47805;DHT22;33568;45.286;9.900;2024-02-21T07:46:32;9.30;99.90
47805;DHT22;33568;45.286;9.900;2024-02-21T07:49:02;9.40;99.90
47805;DHT22;33568;45.286;9.900;2024-02-21T07:51:34;9.50;99.90
47805;DHT22;33568;45.286;9.900;2024-02-21T07:54:02;9.70;99.90
47805;DHT22;33568;45.286;9.900;2024-02-21T07:56:30;9.80;99.90
47805;DHT22;33568;45.286;9.900;2024-02-21T07:58:57;9.90;99.90
47805;DHT22;33568;45.286;9.900;2024-02-21T08:01:24;10.10;99.90
47805;DHT22;33568;45.286;9.900;2024-02-21T08:03:51;10.10;99.90
47805;DHT22;33568;45.286;9.900;2024-02-21T08:06:18;10.30;99.90
47805;DHT22;33568;45.286;9.900;2024-02-21T08:08:45;10.40;99.90
47805;DHT22;33568;45.286;9.900;2024-02-21T08:11:12;10.50;99.90
47805;DHT22;33568;45.286;9.900;2024-02-21T08:13:39;10.60;99.90
47805;DHT22;33568;45.286;9.900;2024-02-21T08:16:06;10.70;99.90
47805;DHT22;33568;45.286;9.900;2024-02-21T08:18:33;10.80;99.90
47805;DHT22;33568;45.286;9.900;2024-02-21T08:21:04;10.80;99.70
47805;DHT22;33568;45.286;9.900;2024-02-21T08:23:32;10.90;99.50
47805;DHT22;33568;45.286;9.900;2024-02-21T08:25:59;11.10;99.20
47805;DHT22;33568;45.286;9.900;2024-02-21T08:28:26;11.20;98.90
47805;DHT22;33568;45.286;9.900;2024-02-21T08:30:53;11.30;98.50
47805;DHT22;33568;45.286;9.900;2024-02-21T08:33:20;11.40;98.50
47805;DHT22;33568;45.286;9.900;2024-02-21T08:36:03;11.40;98.30
47805;DHT22;33568;45.286;9.900;2024-02-21T08:38:30;11.50;98.00
47805;DHT22;33568;45.286;9.900;2024-02-21T08:40:56;11.60;97.70
47805;DHT22;33568;45.286;9.900;2024-02-21T08:43:24;11.70;97.20
47805;DHT22;33568;45.286;9.900;2024-02-21T08:45:50;11.80;96.80
47805;DHT22;33568;45.286;9.900;2024-02-21T08:48:18;11.90;96.20
47805;DHT22;33568;45.286;9.900;2024-02-21T08:50:44;12.00;95.70
47805;DHT22;33568;45.286;9.900;2024-02-21T08:53:11;12.20;95.30
47805;DHT22;33568;45.286;9.900;2024-02-21T08:55:39;12.30;95.10
47805;DHT22;33568;45.286;9.900;2024-02-21T08:58:06;12.40;94.70
47805;DHT22;33568;45.286;9.900;2024-02-21T09:00:32;12.50;94.20
47805;DHT22;33568;45.286;9.900;2024-02-21T09:02:59;12.50;93.70
47805;DHT22;33568;45.286;9.900;2024-02-21T09:05:26;12.60;93.40
47805;DHT22;33568;45.286;9.900;2024-02-21T09:07:52;12.70;93.00
47805;DHT22;33568;45.286;9.900;2024-02-21T09:10:19;12.70;92.40
47805;DHT22;33568;45.286;9.900;2024-02-21T09:12:46;12.80;91.90
47805;DHT22;33568;45.286;9.900;2024-02-21T09:15:14;13.00;91.50
47805;DHT22;33568;45.286;9.900;2024-02-21T09:17:43;13.10;91.20
47805;DHT22;33568;45.286;9.900;2024-02-21T09:20:10;13.10;90.80
47805;DHT22;33568;45.286;9.900;2024-02-21T09:22:38;13.30;90.70
47805;DHT22;33568;45.286;9.900;2024-02-21T09:25:06;13.60;90.50
47805;DHT22;33568;45.286;9.900;2024-02-21T09:27:33;14.30;90.10
47805;DHT22;33568;45.286;9.900;2024-02-21T09:30:00;15.10;88.10
47805;DHT22;33568;45.286;9.900;2024-02-21T09:32:27;15.90;85.60
47805;DHT22;33568;45.286;9.900;2024-02-21T09:34:54;16.60;83.30
47805;DHT22;33568;45.286;9.900;2024-02-21T09:37:21;17.40;80.60
47805;DHT22;33568;45.286;9.900;2024-02-21T09:39:55;18.00;77.90
47805;DHT22;33568;45.286;9.900;2024-02-21T09:42:29;18.50;75.80
47805;DHT22;33568;45.286;9.900;2024-02-21T09:44:59;19.10;73.90
47805;DHT22;33568;45.286;9.900;2024-02-21T09:50:29;19.90;67.10
47805;DHT22;33568;45.286;9.900;2024-02-21T09:52:59;20.30;70.00
47805;DHT22;33568;45.286;9.900;2024-02-21T09:55:30;20.50;68.40
47805;DHT22;33568;45.286;9.900;2024-02-21T09:58:01;20.80;67.00
47805;DHT22;33568;45.286;9.900;2024-02-21T10:00:29;20.90;65.60
47805;DHT22;33568;45.286;9.900;2024-02-21T10:02:58;21.00;64.80
47805;DHT22;33568;45.286;9.900;2024-02-21T10:05:25;21.30;64.40
47805;DHT22;33568;45.286;9.900;2024-02-21T10:07:57;21.60;64.00
47805;DHT22;33568;45.286;9.900;2024-02-21T10:10:25;22.00;62.90
47805;DHT22;33568;45.286;9.900;2024-02-21T10:12:54;22.30;61.70
47805;DHT22;33568;45.286;9.900;2024-02-21T10:15:22;22.40;60.90
47805;DHT22;33568;45.286;9.900;2024-02-21T10:18:01;22.50;60.40
47805;DHT22;33568;45.286;9.900;2024-02-21T10:20:30;22.80;57.90
47805;DHT22;33568;45.286;9.900;2024-02-21T10:23:03;23.10;59.50
47805;DHT22;33568;45.286;9.900;2024-02-21T10:25:40;23.30;57.90
47805;DHT22;33568;45.286;9.900;2024-02-21T10:28:17;23.50;57.80
47805;DHT22;33568;45.286;9.900;2024-02-21T10:30:54;23.70;56.30
47805;DHT22;33568;45.286;9.900;2024-02-21T10:33:21;23.50;56.10
47805;DHT22;33568;45.286;9.900;2024-02-21T10:35:50;23.60;56.60
47805;DHT22;33568;45.286;9.900;2024-02-21T10:38:18;23.80;56.00
47805;DHT22;33568;45.286;9.900;2024-02-21T10:40:47;24.00;55.80
47805;DHT22;33568;45.286;9.900;2024-02-21T10:43:16;24.20;55.10
47805;DHT22;33568;45.286;9.900;2024-02-21T10:45:45;24.40;54.70
47805;DHT22;33568;45.286;9.900;2024-02-21T10:48:15;24.40;54.50
47805;DHT22;33568;45.286;9.900;2024-02-21T10:50:57;24.50;53.90
47805;DHT22;33568;45.286;9.900;2024-02-21T10:53:35;24.50;52.10
47805;DHT22;33568;45.286;9.900;2024-02-21T10:56:21;24.60;53.90
47805;DHT22;33568;45.286;9.900;2024-02-21T10:58:49;24.70;52.00
47805;DHT22;33568;45.286;9.900;2024-02-21T11:01:16;24.80;52.90
47805;DHT22;33568;45.286;9.900;2024-02-21T11:03:45;24.90;52.60
47805;DHT22;33568;45.286;9.900;2024-02-21T11:06:14;24.70;52.00
47805;DHT22;33568;45.286;9.900;2024-02-21T11:08:41;24.70;52.00
47805;DHT22;33568;45.286;9.900;2024-02-21T11:11:07;24.70;51.80
47805;DHT22;33568;45.286;9.900;2024-02-21T11:13:37;24.80;51.80
47805;DHT22;33568;45.286;9.900;2024-02-21T11:16:11;24.60;51.50
47805;DHT22;33568;45.286;9.900;2024-02-21T11:18:38;24.60;51.40
47805;DHT22;33568;45.286;9.900;2024-02-21T11:21:06;24.80;52.20
47805;DHT22;33568;45.286;9.900;2024-02-21T11:23:33;24.90;52.10
47805;DHT22;33568;45.286;9.900;2024-02-21T11:26:06;24.70;52.20
47805;DHT22;33568;45.286;9.900;2024-02-21T11:28:33;24.80;51.60
47805;DHT22;33568;45.286;9.900;2024-02-21T11:31:11;25.10;52.30
47805;DHT22;33568;45.286;9.900;2024-02-21T11:33:40;25.30;51.10
47805;DHT22;33568;45.286;9.900;2024-02-21T11:36:10;25.20;51.60
47805;DHT22;33568;45.286;9.900;2024-02-21T11:38:37;25.40;52.00
47805;DHT22;33568;45.286;9.900;2024-02-21T11:41:08;25.60;51.90
47805;DHT22;33568;45.286;9.900;2024-02-21T11:43:35;25.80;51.50
47805;DHT22;33568;45.286;9.900;2024-02-21T11:46:02;26.00;51.40
47805;DHT22;33568;45.286;9.900;2024-02-21T11:48:31;25.90;51.30
47805;DHT22;33568;45.286;9.900;2024-02-21T11:50:58;25.90;51.00
47805;DHT22;33568;45.286;9.900;2024-02-21T11:53:26;25.70;50.80
47805;DHT22;33568;45.286;9.900;2024-02-21T11:55:56;25.70;50.40
47805;DHT22;33568;45.286;9.900;2024-02-21T11:58:23;25.40;50.30
47805;DHT22;33568;45.286;9.900;2024-02-21T12:00:50;25.20;51.10
47805;DHT22;33568;45.286;9.900;2024-02-21T12:03:16;25.40;51.50
47805;DHT22;33568;45.286;9.900;2024-02-21T12:05:43;25.90;51.40
47805;DHT22;33568;45.286;9.900;2024-02-21T12:08:09;26.00;50.90
47805;DHT22;33568;45.286;9.900;2024-02-21T12:10:36;26.30;50.70
47805;DHT22;33568;45.286;9.900;2024-02-21T12:13:06;26.60;50.30
47805;DHT22;33568;45.286;9.900;2024-02-21T12:15:34;26.60;49.80
47805;DHT22;33568;45.286;9.900;2024-02-21T12:18:01;26.60;49.90
47805;DHT22;33568;45.286;9.900;2024-02-21T12:20:27;26.80;49.80
47805;DHT22;33568;45.286;9.900;2024-02-21T12:22:53;26.80;49.50
47805;DHT22;33568;45.286;9.900;2024-02-21T12:25:21;26.60;49.30
47805;DHT22;33568;45.286;9.900;2024-02-21T12:27:49;26.30;49.60
47805;DHT22;33568;45.286;9.900;2024-02-21T12:30:16;26.30;49.90
47805;DHT22;33568;45.286;9.900;2024-02-21T12:32:42;26.20;49.90
47805;DHT22;33568;45.286;9.900;2024-02-21T12:35:09;26.20;49.80
47805;DHT22;33568;45.286;9.900;2024-02-21T12:37:35;26.10;49.80
47805;DHT22;33568;45.286;9.900;2024-02-21T12:40:02;26.10;50.00
47805;DHT22;33568;45.286;9.900;2024-02-21T12:42:33;25.80;49.80
47805;DHT22;33568;45.286;9.900;2024-02-21T12:45:01;25.30;50.00
47805;DHT22;33568;45.286;9.900;2024-02-21T12:47:29;25.10;50.10
47805;DHT22;33568;45.286;9.900;2024-02-21T12:49:56;24.40;50.40
47805;DHT22;33568;45.286;9.900;2024-02-21T12:52:22;23.60;51.40
47805;DHT22;33568;45.286;9.900;2024-02-21T12:54:49;22.80;52.80
47805;DHT22;33568;45.286;9.900;2024-02-21T12:57:17;22.20;53.90
47805;DHT22;33568;45.286;9.900;2024-02-21T12:59:44;21.80;54.40
47805;DHT22;33568;45.286;9.900;2024-02-21T13:02:10;21.40;54.80
47805;DHT22;33568;45.286;9.900;2024-02-21T13:04:37;21.20;55.60
47805;DHT22;33568;45.286;9.900;2024-02-21T13:07:06;20.90;56.20
47805;DHT22;33568;45.286;9.900;2024-02-21T13:09:33;20.60;56.80
47805;DHT22;33568;45.286;9.900;2024-02-21T13:11:59;20.50;57.40
47805;DHT22;33568;45.286;9.900;2024-02-21T13:14:26;20.30;58.30
47805;DHT22;33568;45.286;9.900;2024-02-21T13:16:52;20.20;58.00
47805;DHT22;33568;45.286;9.900;2024-02-21T13:19:19;20.00;58.60
47805;DHT22;33568;45.286;9.900;2024-02-21T13:21:45;19.90;59.00
47805;DHT22;33568;45.286;9.900;2024-02-21T13:24:11;19.50;60.60
47805;DHT22;33568;45.286;9.900;2024-02-21T13:26:37;19.40;59.90
47805;DHT22;33568;45.286;9.900;2024-02-21T13:29:04;19.30;61.40
47805;DHT22;33568;45.286;9.900;2024-02-21T13:31:30;19.40;60.60
47805;DHT22;33568;45.286;9.900;2024-02-21T13:33:56;19.20;61.40
47805;DHT22;33568;45.286;9.900;2024-02-21T13:36:22;19.00;61.40
47805;DHT22;33568;45.286;9.900;2024-02-21T13:38:49;18.80;62.70
47805;DHT22;33568;45.286;9.900;2024-02-21T13:41:17;18.70;62.00
47805;DHT22;33568;45.286;9.900;2024-02-21T13:43:44;18.80;62.00
47805;DHT22;33568;45.286;9.900;2024-02-21T13:46:12;18.90;62.10
47805;DHT22;33568;45.286;9.900;2024-02-21T13:48:39;18.90;62.10
47805;DHT22;33568;45.286;9.900;2024-02-21T13:51:05;19.00;61.70
47805;DHT22;33568;45.286;9.900;2024-02-21T13:53:31;19.00;61.20
47805;DHT22;33568;45.286;9.900;2024-02-21T13:55:58;19.10;61.40
47805;DHT22;33568;45.286;9.900;2024-02-21T13:58:24;18.80;61.90
47805;DHT22;33568;45.286;9.900;2024-02-21T14:00:52;18.80;62.20
47805;DHT22;33568;45.286;9.900;2024-02-21T14:03:19;18.80;62.70
47805;DHT22;33568;45.286;9.900;2024-02-21T14:05:46;18.80;63.10
47805;DHT22;33568;45.286;9.900;2024-02-21T14:08:14;18.70;63.60
47805;DHT22;33568;45.286;9.900;2024-02-21T14:10:41;18.70;63.90
47805;DHT22;33568;45.286;9.900;2024-02-21T14:13:15;18.70;64.30
47805;DHT22;33568;45.286;9.900;2024-02-21T14:15:46;18.70;64.40
47805;DHT22;33568;45.286;9.900;2024-02-21T14:18:14;18.70;64.60
47805;DHT22;33568;45.286;9.900;2024-02-21T14:20:42;18.70;64.70
47805;DHT22;33568;45.286;9.900;2024-02-21T14:23:09;18.70;64.80
47805;DHT22;33568;45.286;9.900;2024-02-21T14:25:36;18.80;64.70
47805;DHT22;33568;45.286;9.900;2024-02-21T14:28:02;18.70;64.70
47805;DHT22;33568;45.286;9.900;2024-02-21T14:30:28;18.60;64.70
47805;DHT22;33568;45.286;9.900;2024-02-21T14:32:55;18.70;65.00
47805;DHT22;33568;45.286;9.900;2024-02-21T14:35:21;18.70;65.10
47805;DHT22;33568;45.286;9.900;2024-02-21T14:37:47;18.50;65.60
47805;DHT22;33568;45.286;9.900;2024-02-21T14:40:16;18.50;65.60
47805;DHT22;33568;45.286;9.900;2024-02-21T14:42:45;18.50;65.80
47805;DHT22;33568;45.286;9.900;2024-02-21T14:45:12;18.50;66.10
47805;DHT22;33568;45.286;9.900;2024-02-21T14:47:39;18.40;66.10
47805;DHT22;33568;45.286;9.900;2024-02-21T14:50:06;18.20;66.20
47805;DHT22;33568;45.286;9.900;2024-02-21T14:52:33;18.20;66.60
47805;DHT22;33568;45.286;9.900;2024-02-21T14:54:59;18.20;66.50
47805;DHT22;33568;45.286;9.900;2024-02-21T14:57:29;18.20;66.70
47805;DHT22;33568;45.286;9.900;2024-02-21T14:59:55;18.30;67.10
47805;DHT22;33568;45.286;9.900;2024-02-21T15:02:25;18.20;67.00
47805;DHT22;33568;45.286;9.900;2024-02-21T15:04:51;18.40;67.10
47805;DHT22;33568;45.286;9.900;2024-02-21T15:07:17;18.40;66.90
47805;DHT22;33568;45.286;9.900;2024-02-21T15:09:43;18.30;67.20
47805;DHT22;33568;45.286;9.900;2024-02-21T15:12:10;18.30;67.20
47805;DHT22;33568;45.286;9.900;2024-02-21T15:14:36;18.30;67.20
47805;DHT22;33568;45.286;9.900;2024-02-21T15:17:03;18.30;67.20
47805;DHT22;33568;45.286;9.900;2024-02-21T15:19:29;18.30;67.70
47805;DHT22;33568;45.286;9.900;2024-02-21T15:21:56;18.30;67.40
47805;DHT22;33568;45.286;9.900;2024-02-21T15:24:22;18.30;67.10
47805;DHT22;33568;45.286;9.900;2024-02-21T15:26:48;18.20;67.40
47805;DHT22;33568;45.286;9.900;2024-02-21T15:29:14;18.20;67.60
47805;DHT22;33568;45.286;9.900;2024-02-21T15:31:41;18.00;67.90
47805;DHT22;33568;45.286;9.900;2024-02-21T15:34:13;18.00;68.10
47805;DHT22;33568;45.286;9.900;2024-02-21T15:36:41;17.80;69.00
47805;DHT22;33568;45.286;9.900;2024-02-21T15:39:08;17.70;68.70
47805;DHT22;33568;45.286;9.900;2024-02-21T15:41:37;17.70;69.00
47805;DHT22;33568;45.286;9.900;2024-02-21T15:44:03;17.70;69.50